createdAt,value
2018-08-11T00:01:17.149Z,1.73
2018-08-11T00:03:45.538Z,2.03
2018-08-11T00:06:13.928Z,2.10
2018-08-11T00:08:42.317Z,2.13
2018-08-11T00:11:10.697Z,1.90
2018-08-11T00:13:39.106Z,2.17
2018-08-11T00:16:07.491Z,1.77
2018-08-11T00:18:35.885Z,1.70
2018-08-11T00:21:04.270Z,1.90
2018-08-11T00:23:32.669Z,1.50
2018-08-11T00:26:01.109Z,1.77
2018-08-11T00:28:29.506Z,1.80
2018-08-11T00:30:57.875Z,1.90
2018-08-11T00:33:26.265Z,1.23
2018-08-11T00:35:54.661Z,2.07
2018-08-11T00:38:23.070Z,1.83
2018-08-11T00:40:51.448Z,2.43
2018-08-11T00:43:19.850Z,1.80
2018-08-11T00:45:48.227Z,1.90
2018-08-11T00:48:16.622Z,2.03
2018-08-11T00:50:44.985Z,1.43
2018-08-11T00:53:13.386Z,1.30
2018-08-11T00:55:41.767Z,2.00
2018-08-11T00:58:10.157Z,1.63
2018-08-11T01:00:38.534Z,1.60
2018-08-11T01:03:06.926Z,1.50
2018-08-11T01:05:35.304Z,1.73
2018-08-11T01:08:03.698Z,1.80
2018-08-11T01:10:32.068Z,1.50
2018-08-11T01:13:00.481Z,1.50
2018-08-11T01:15:28.852Z,2.07
2018-08-11T01:17:57.265Z,1.90
2018-08-11T01:20:25.637Z,1.87
2018-08-11T01:22:54.033Z,1.60
2018-08-11T01:25:22.402Z,1.80
2018-08-11T01:27:50.797Z,1.90
2018-08-11T01:30:21.490Z,1.67
2018-08-11T01:32:49.906Z,1.60
2018-08-11T01:35:18.298Z,1.70
2018-08-11T01:37:47.162Z,1.60
2018-08-11T01:40:16.213Z,2.10
2018-08-11T01:42:45.766Z,2.00
2018-08-11T01:45:14.939Z,1.43
2018-08-11T01:47:43.498Z,1.67
2018-08-11T01:50:13.229Z,1.50
2018-08-11T01:52:42.867Z,1.50
2018-08-11T01:55:13.167Z,1.50
2018-08-11T01:57:41.846Z,1.40
2018-08-11T02:00:12.122Z,1.50
2018-08-11T02:02:40.989Z,1.30
2018-08-11T02:05:10.376Z,1.40
2018-08-11T02:07:39.803Z,1.60
2018-08-11T02:10:11.170Z,1.60
2018-08-11T02:12:39.735Z,1.63
2018-08-11T02:15:09.866Z,1.43
2018-08-11T02:17:38.258Z,1.60
2018-08-11T02:20:08.966Z,1.67
2018-08-11T02:22:37.349Z,1.27
2018-08-11T02:25:06.851Z,1.30
2018-08-11T02:27:35.218Z,1.40
2018-08-11T02:30:03.650Z,1.57
2018-08-11T02:32:32.059Z,1.27
2018-08-11T02:35:00.470Z,1.37
2018-08-11T02:37:28.838Z,1.80
2018-08-11T02:39:57.240Z,1.83
2018-08-11T02:42:25.630Z,1.47
2018-08-11T02:44:54.031Z,1.37
2018-08-11T02:47:22.412Z,1.87
2018-08-11T02:49:51.156Z,1.47
2018-08-11T02:52:19.538Z,2.27
2018-08-11T02:54:47.951Z,2.00
2018-08-11T02:57:16.327Z,1.70
2018-08-11T02:59:44.730Z,1.60
2018-08-11T03:02:13.098Z,1.70
2018-08-11T03:04:41.502Z,1.50
2018-08-11T03:07:09.884Z,1.80
2018-08-11T03:09:38.286Z,1.57
2018-08-11T03:12:06.790Z,1.87
2018-08-11T03:14:35.214Z,1.60
2018-08-11T03:17:03.599Z,1.77
2018-08-11T03:19:31.999Z,1.77
2018-08-11T03:22:00.379Z,1.53
2018-08-11T03:24:28.802Z,2.03
2018-08-11T03:26:57.166Z,1.90
2018-08-11T03:29:25.571Z,2.00
2018-08-11T03:31:53.955Z,1.60
2018-08-11T03:34:22.355Z,1.40
2018-08-11T03:36:50.723Z,1.60
2018-08-11T03:39:19.125Z,1.73
2018-08-11T03:41:47.505Z,1.60
2018-08-11T03:44:15.919Z,1.60
2018-08-11T03:46:44.286Z,1.83
2018-08-11T03:49:12.682Z,1.60
2018-08-11T03:51:41.050Z,1.67
2018-08-11T03:54:09.456Z,2.23
2018-08-11T03:56:37.854Z,1.60
2018-08-11T03:59:06.735Z,1.60
2018-08-11T04:01:35.106Z,1.20
2018-08-11T04:04:03.512Z,1.90
2018-08-11T04:06:31.918Z,1.83
2018-08-11T04:09:00.302Z,1.77
2018-08-11T04:11:28.679Z,1.83
2018-08-11T04:13:57.072Z,1.97
2018-08-11T04:16:25.471Z,2.17
2018-08-11T04:18:53.842Z,2.60
2018-08-11T04:21:22.249Z,2.00
2018-08-11T04:23:50.646Z,2.10
2018-08-11T04:26:19.034Z,1.87
2018-08-11T04:28:47.412Z,1.77
2018-08-11T04:31:15.838Z,2.07
2018-08-11T04:33:44.210Z,1.87
2018-08-11T04:36:12.615Z,2.50
2018-08-11T04:38:40.982Z,2.10
2018-08-11T04:41:09.582Z,2.50
2018-08-11T04:43:37.960Z,2.20
2018-08-11T04:46:06.356Z,2.50
2018-08-11T04:48:34.726Z,1.87
2018-08-11T04:51:03.139Z,2.43
2018-08-11T04:53:31.514Z,2.27
2018-08-11T04:55:59.907Z,1.83
2018-08-11T04:58:28.282Z,2.50
2018-08-11T05:00:56.684Z,1.93
2018-08-11T05:03:25.070Z,2.37
2018-08-11T05:05:53.746Z,2.93
2018-08-11T05:08:22.163Z,2.50
2018-08-11T05:10:50.562Z,2.40
2018-08-11T05:13:18.962Z,2.87
2018-08-11T05:15:47.358Z,2.60
2018-08-11T05:18:15.738Z,2.90
2018-08-11T05:20:44.137Z,2.23
2018-08-11T05:23:12.510Z,2.20
2018-08-11T05:25:41.082Z,2.30
2018-08-11T05:28:09.463Z,2.30
2018-08-11T05:30:37.864Z,3.10
2018-08-11T05:33:06.455Z,2.33
2018-08-11T05:35:34.851Z,2.30
2018-08-11T05:38:03.367Z,2.50
2018-08-11T05:40:33.410Z,2.60
2018-08-11T05:43:01.831Z,2.30
2018-08-11T05:45:30.263Z,2.57
2018-08-11T05:47:58.635Z,2.30
2018-08-11T05:50:27.039Z,2.43
2018-08-11T05:52:55.450Z,2.30
2018-08-11T05:55:23.859Z,2.20
2018-08-11T05:57:52.230Z,2.23
2018-08-11T06:00:20.635Z,1.90
2018-08-11T06:02:49.015Z,2.07
2018-08-11T06:05:17.410Z,2.03
2018-08-11T06:07:45.791Z,2.30
2018-08-11T06:10:14.190Z,2.67
2018-08-11T06:12:42.558Z,2.10
2018-08-11T06:15:10.967Z,1.83
2018-08-11T06:17:39.361Z,2.00
2018-08-11T06:20:08.780Z,2.30
2018-08-11T06:22:37.192Z,1.80
2018-08-11T06:25:07.346Z,1.90
2018-08-11T06:27:35.751Z,2.30
2018-08-11T06:30:05.110Z,2.30
2018-08-11T06:32:33.517Z,2.70
2018-08-11T06:35:01.886Z,2.23
2018-08-11T06:37:30.283Z,2.00
2018-08-11T06:39:58.655Z,2.27
2018-08-11T06:42:27.057Z,2.33
2018-08-11T06:44:55.444Z,2.40
2018-08-11T06:47:23.843Z,1.80
2018-08-11T06:49:52.208Z,2.73
2018-08-11T06:52:20.611Z,2.70
2018-08-11T06:54:48.999Z,2.57
2018-08-11T06:57:17.393Z,1.77
2018-08-11T06:59:45.807Z,1.80
2018-08-11T07:02:14.215Z,2.63
2018-08-11T07:04:42.602Z,2.47
2018-08-11T07:07:11.007Z,2.30
2018-08-11T07:09:39.391Z,2.23
2018-08-11T07:12:07.869Z,2.20
2018-08-11T07:14:36.268Z,2.23
2018-08-11T07:17:04.670Z,1.93
2018-08-11T07:19:33.038Z,2.17
2018-08-11T07:22:01.434Z,1.60
2018-08-11T07:24:29.804Z,2.90
2018-08-11T07:26:58.191Z,1.90
2018-08-11T07:29:26.566Z,2.27
2018-08-11T07:31:54.957Z,1.80
2018-08-11T07:34:23.326Z,2.30
2018-08-11T07:36:51.760Z,1.80
2018-08-11T07:39:20.154Z,2.03
2018-08-11T07:41:48.575Z,1.83
2018-08-11T07:44:16.970Z,1.77
2018-08-11T07:46:45.366Z,1.60
2018-08-11T07:49:13.759Z,2.10
2018-08-11T07:51:42.165Z,2.20
2018-08-11T07:54:10.539Z,1.90
2018-08-11T07:56:38.950Z,2.00
2018-08-11T07:59:07.530Z,2.03
2018-08-11T08:01:35.975Z,1.90
2018-08-11T08:04:04.363Z,2.30
2018-08-11T08:06:32.814Z,2.00
2018-08-11T08:09:01.191Z,2.47
2018-08-11T08:11:29.582Z,2.53
2018-08-11T08:13:57.977Z,2.27
2018-08-11T08:16:26.379Z,2.23
2018-08-11T08:18:54.759Z,2.50
2018-08-11T08:21:23.130Z,1.93
2018-08-11T08:23:51.539Z,2.20
2018-08-11T08:26:19.996Z,3.17
2018-08-11T08:28:48.354Z,2.40
2018-08-11T08:31:16.722Z,2.23
2018-08-11T08:33:45.194Z,2.30
2018-08-11T08:36:13.537Z,2.30
2018-08-11T08:38:41.962Z,2.23
2018-08-11T08:41:10.339Z,4.27
2018-08-11T08:43:38.751Z,3.00
2018-08-11T08:46:07.135Z,2.93
2018-08-11T08:48:35.542Z,3.33
2018-08-11T08:51:04.253Z,3.53
2018-08-11T08:53:32.650Z,3.57
2018-08-11T08:56:01.017Z,3.20
2018-08-11T08:58:29.437Z,3.17
2018-08-11T09:00:57.814Z,2.63
2018-08-11T09:03:26.210Z,2.50
2018-08-11T09:05:54.590Z,2.50
2018-08-11T09:08:22.992Z,2.70
2018-08-11T09:10:51.371Z,2.50
2018-08-11T09:13:19.803Z,2.07
2018-08-11T09:15:48.176Z,3.10
2018-08-11T09:18:16.599Z,3.00
2018-08-11T09:20:44.978Z,2.20
2018-08-11T09:23:13.377Z,1.90
2018-08-11T09:25:41.768Z,3.10
2018-08-11T09:28:10.172Z,1.90
2018-08-11T09:30:38.547Z,2.93
2018-08-11T09:33:07.016Z,1.87
2018-08-11T09:35:35.634Z,1.60
2018-08-11T09:38:04.050Z,2.03
2018-08-11T09:40:32.429Z,2.40
2018-08-11T09:43:00.836Z,2.20
2018-08-11T09:45:29.363Z,2.00
2018-08-11T09:47:57.762Z,1.40
2018-08-11T09:50:26.148Z,0.97
2018-08-11T09:52:54.551Z,0.83
2018-08-11T09:55:22.942Z,1.00
2018-08-11T09:57:51.355Z,1.00
2018-08-11T10:00:24.918Z,1.03
2018-08-11T10:02:53.678Z,1.33
2018-08-11T10:05:22.543Z,1.17
2018-08-11T10:07:50.947Z,1.70
2018-08-11T10:10:19.344Z,1.20
2018-08-11T10:12:47.738Z,1.10
2018-08-11T10:15:16.151Z,0.90
2018-08-11T10:17:44.522Z,1.00
2018-08-11T10:20:12.939Z,1.50
2018-08-11T10:22:41.315Z,1.20
2018-08-11T10:25:09.714Z,1.03
2018-08-11T10:27:38.091Z,0.93
2018-08-11T10:30:07.275Z,1.03
2018-08-11T10:32:35.651Z,1.00
2018-08-11T10:35:04.079Z,1.17
2018-08-11T10:37:32.462Z,1.33
2018-08-11T10:40:00.875Z,1.27
2018-08-11T10:42:29.295Z,1.27
2018-08-11T10:44:57.698Z,1.13
2018-08-11T10:47:26.079Z,1.70
2018-08-11T10:49:54.510Z,1.07
2018-08-11T10:52:22.885Z,0.80
2018-08-11T10:54:51.282Z,1.20
2018-08-11T10:57:19.663Z,1.20
2018-08-11T10:59:48.067Z,1.60
2018-08-11T11:02:16.591Z,1.03
2018-08-11T11:04:44.986Z,0.90
2018-08-11T11:07:13.363Z,0.70
2018-08-11T11:09:41.762Z,0.90
2018-08-11T11:12:10.309Z,0.90
2018-08-11T11:14:38.746Z,0.80
2018-08-11T11:17:07.118Z,0.70
2018-08-11T11:19:35.519Z,0.73
2018-08-11T11:22:03.898Z,0.80
2018-08-11T11:24:32.302Z,1.00
2018-08-11T11:27:00.682Z,0.67
2018-08-11T11:29:29.095Z,0.70
2018-08-11T11:31:57.469Z,0.70
2018-08-11T11:34:25.858Z,1.03
2018-08-11T11:36:54.410Z,0.57
2018-08-11T11:39:22.810Z,0.90
2018-08-11T11:41:51.199Z,0.80
2018-08-11T11:44:19.630Z,1.20
2018-08-11T11:46:48.004Z,0.80
2018-08-11T11:49:16.398Z,0.77
2018-08-11T11:51:44.773Z,0.80
2018-08-11T11:54:13.174Z,1.17
2018-08-11T11:56:41.551Z,0.80
2018-08-11T11:59:09.955Z,0.83
2018-08-11T12:01:38.399Z,1.17
2018-08-11T12:04:06.798Z,0.93
2018-08-11T12:06:35.171Z,1.00
2018-08-11T12:09:03.783Z,0.73
2018-08-11T12:11:32.166Z,0.87
2018-08-11T12:14:00.621Z,0.80
2018-08-11T12:16:28.996Z,1.10
2018-08-11T12:18:57.370Z,0.77
2018-08-11T12:21:25.762Z,0.70
2018-08-11T12:23:54.130Z,1.00
2018-08-11T12:26:22.541Z,0.80
2018-08-11T12:28:50.938Z,0.80
2018-08-11T12:31:19.404Z,0.83
2018-08-11T12:33:47.734Z,0.90
2018-08-11T12:36:16.136Z,1.20
2018-08-11T12:38:44.516Z,1.00
2018-08-11T12:41:13.206Z,1.00
2018-08-11T12:43:41.586Z,0.80
2018-08-11T12:46:09.983Z,1.00
2018-08-11T12:48:38.346Z,0.80
2018-08-11T12:51:06.743Z,1.10
2018-08-11T12:53:35.162Z,1.10
2018-08-11T12:56:03.530Z,1.07
2018-08-11T12:58:31.916Z,1.10
2018-08-11T13:01:00.551Z,1.00
2018-08-11T13:03:28.925Z,1.20
2018-08-11T13:05:57.339Z,1.07
2018-08-11T13:08:25.719Z,1.00
2018-08-11T13:10:54.116Z,1.03
2018-08-11T13:13:22.506Z,1.00
2018-08-11T13:15:50.910Z,1.27
2018-08-11T13:18:19.284Z,1.40
2018-08-11T13:20:47.731Z,0.80
2018-08-11T13:23:16.078Z,0.90
2018-08-11T13:25:44.474Z,0.90
2018-08-11T13:28:12.842Z,0.80
2018-08-11T13:30:41.243Z,1.00
2018-08-11T13:33:09.618Z,0.90
2018-08-11T13:35:38.167Z,0.77
2018-08-11T13:38:06.565Z,0.80
2018-08-11T13:40:34.958Z,0.97
2018-08-11T13:43:03.343Z,1.30
2018-08-11T13:45:31.746Z,1.23
2018-08-11T13:48:00.127Z,0.80
2018-08-11T13:50:28.523Z,0.90
2018-08-11T13:52:56.897Z,1.43
2018-08-11T13:55:25.299Z,1.67
2018-08-11T13:57:53.766Z,1.93
2018-08-11T14:00:22.178Z,1.47
2018-08-11T14:02:50.546Z,1.50
2018-08-11T14:05:19.530Z,1.17
2018-08-11T14:07:48.196Z,1.50
2018-08-11T14:10:16.598Z,1.23
2018-08-11T14:12:44.961Z,1.00
2018-08-11T14:15:13.391Z,1.10
2018-08-11T14:17:41.791Z,0.90
2018-08-11T14:20:10.848Z,0.87
2018-08-11T14:22:39.719Z,1.30
2018-08-11T14:25:08.695Z,1.23
2018-08-11T14:27:37.322Z,1.50
2018-08-11T14:30:08.096Z,1.93
2018-08-11T14:32:36.570Z,1.00
2018-08-11T14:35:05.203Z,1.00
2018-08-11T14:37:33.600Z,1.37
2018-08-11T14:40:01.978Z,0.90
2018-08-11T14:42:30.375Z,1.23
2018-08-11T14:44:58.759Z,0.90
2018-08-11T14:47:27.152Z,1.27
2018-08-11T14:49:55.531Z,0.77
2018-08-11T14:52:23.926Z,1.00
2018-08-11T14:54:52.299Z,1.60
2018-08-11T14:57:20.690Z,1.20
2018-08-11T14:59:49.063Z,1.43
2018-08-11T15:02:17.467Z,1.10
2018-08-11T15:04:45.842Z,1.47
2018-08-11T15:07:14.250Z,1.00
2018-08-11T15:09:42.659Z,1.00
2018-08-11T15:12:11.056Z,1.50
2018-08-11T15:14:39.462Z,1.10
2018-08-11T15:17:07.885Z,0.80
2018-08-11T15:19:36.258Z,1.00
2018-08-11T15:22:04.664Z,1.00
2018-08-11T15:24:33.038Z,0.93
2018-08-11T15:27:01.443Z,1.50
2018-08-11T15:29:29.831Z,1.20
2018-08-11T15:31:58.230Z,1.17
2018-08-11T15:34:26.611Z,1.50
2018-08-11T15:36:55.035Z,1.47
2018-08-11T15:39:23.431Z,1.77
2018-08-11T15:41:51.852Z,1.50
2018-08-11T15:44:20.227Z,1.23
2018-08-11T15:46:48.626Z,1.37
2018-08-11T15:49:17.007Z,1.30
2018-08-11T15:51:45.419Z,1.47
2018-08-11T15:54:13.801Z,0.93
2018-08-11T15:56:42.210Z,1.10
2018-08-11T15:59:10.578Z,1.17
2018-08-11T16:01:39.006Z,0.90
2018-08-11T16:04:07.422Z,1.27
2018-08-11T16:06:35.819Z,1.30
2018-08-11T16:09:05.878Z,1.47
2018-08-11T16:11:34.273Z,1.30
2018-08-11T16:14:02.931Z,1.30
2018-08-11T16:16:31.322Z,1.60
2018-08-11T16:19:00.687Z,1.20
2018-08-11T16:21:29.067Z,1.50
2018-08-11T16:23:57.507Z,0.90
2018-08-11T16:26:25.905Z,0.90
2018-08-11T16:28:54.302Z,0.93
2018-08-11T16:31:22.885Z,1.57
2018-08-11T16:33:51.279Z,1.10
2018-08-11T16:36:19.651Z,1.40
2018-08-11T16:38:48.082Z,1.73
2018-08-11T16:41:16.463Z,1.47
2018-08-11T16:43:44.867Z,0.77
2018-08-11T16:46:13.230Z,1.17
2018-08-11T16:48:41.636Z,0.70
2018-08-11T16:51:10.011Z,0.77
2018-08-11T16:53:38.407Z,1.00
2018-08-11T16:56:06.782Z,0.80
2018-08-11T16:58:35.178Z,1.10
2018-08-11T17:01:03.546Z,0.93
2018-08-11T17:03:31.941Z,1.00
2018-08-11T17:06:00.306Z,0.70
2018-08-11T17:08:28.698Z,0.70
2018-08-11T17:10:57.075Z,1.00
2018-08-11T17:13:25.485Z,0.70
2018-08-11T17:15:53.863Z,0.80
2018-08-11T17:18:22.254Z,0.63
2018-08-11T17:20:50.980Z,0.70
2018-08-11T17:23:19.319Z,0.73
2018-08-11T17:25:47.690Z,0.50
2018-08-11T17:28:16.082Z,0.90
2018-08-11T17:30:44.506Z,0.67
2018-08-11T17:33:13.014Z,1.00
2018-08-11T17:35:41.391Z,0.77
2018-08-11T17:38:09.799Z,0.80
2018-08-11T17:40:38.170Z,0.80
2018-08-11T17:43:06.723Z,1.07
2018-08-11T17:45:35.103Z,0.93
2018-08-11T17:48:03.535Z,0.60
2018-08-11T17:50:31.916Z,1.40
2018-08-11T17:53:00.310Z,1.30
2018-08-11T17:55:28.730Z,0.77
2018-08-11T17:57:57.198Z,1.10
2018-08-11T18:00:25.583Z,1.40
2018-08-11T18:02:53.974Z,0.80
2018-08-11T18:05:22.400Z,0.90
2018-08-11T18:07:50.806Z,0.83
2018-08-11T18:10:19.177Z,0.97
2018-08-11T18:12:47.599Z,0.90
2018-08-11T18:15:16.007Z,1.20
2018-08-11T18:17:44.407Z,0.90
2018-08-11T18:20:12.787Z,0.70
2018-08-11T18:22:41.184Z,0.93
2018-08-11T18:25:09.626Z,1.20
2018-08-11T18:27:38.002Z,0.90
2018-08-11T18:30:07.078Z,1.10
2018-08-11T18:32:35.454Z,0.80
2018-08-11T18:35:04.052Z,1.20
2018-08-11T18:37:32.434Z,0.93
2018-08-11T18:40:00.838Z,1.30
2018-08-11T18:42:29.206Z,1.00
2018-08-11T18:44:57.598Z,1.10
2018-08-11T18:47:25.968Z,1.30
2018-08-11T18:49:54.368Z,1.20
2018-08-11T18:52:22.753Z,0.93
2018-08-11T18:54:51.151Z,1.03
2018-08-11T18:57:19.534Z,0.83
2018-08-11T18:59:47.935Z,0.80
2018-08-11T19:02:16.314Z,1.47
2018-08-11T19:04:44.740Z,0.87
2018-08-11T19:07:13.444Z,1.13
2018-08-11T19:09:41.863Z,1.20
2018-08-11T19:12:10.250Z,0.90
2018-08-11T19:14:38.671Z,1.00
2018-08-11T19:17:07.071Z,1.13
2018-08-11T19:19:35.475Z,1.00
2018-08-11T19:22:03.981Z,1.43
2018-08-11T19:24:32.374Z,1.20
2018-08-11T19:27:00.745Z,1.30
2018-08-11T19:29:29.274Z,2.00
2018-08-11T19:31:57.642Z,1.27
2018-08-11T19:34:26.039Z,1.47
2018-08-11T19:36:54.417Z,1.33
2018-08-11T19:39:22.820Z,1.30
2018-08-11T19:41:51.195Z,1.37
2018-08-11T19:44:19.594Z,1.23
2018-08-11T19:46:47.975Z,1.37
2018-08-11T19:49:16.367Z,1.03
2018-08-11T19:51:44.733Z,1.00
2018-08-11T19:54:13.134Z,1.10
2018-08-11T19:56:41.507Z,1.30
2018-08-11T19:59:09.902Z,1.20
2018-08-11T20:01:38.418Z,0.77
2018-08-11T20:04:06.835Z,1.20
2018-08-11T20:06:35.210Z,1.20
2018-08-11T20:09:03.698Z,1.17
2018-08-11T20:11:32.074Z,1.17
2018-08-11T20:14:00.499Z,1.23
2018-08-11T20:16:28.902Z,1.57
2018-08-11T20:18:57.288Z,1.40
2018-08-11T20:21:25.706Z,1.90
2018-08-11T20:23:54.079Z,1.50
2018-08-11T20:26:22.508Z,1.50
2018-08-11T20:28:50.906Z,0.90
2018-08-11T20:31:19.303Z,1.63
2018-08-11T20:33:47.826Z,1.70
2018-08-11T20:36:16.221Z,1.00
2018-08-11T20:38:44.603Z,1.30
2018-08-11T20:41:13.004Z,1.10
2018-08-11T20:43:41.382Z,1.30
2018-08-11T20:46:09.947Z,1.20
2018-08-11T20:48:38.327Z,1.30
2018-08-11T20:51:06.767Z,1.30
2018-08-11T20:53:35.137Z,1.10
2018-08-11T20:56:03.554Z,1.10
2018-08-11T20:58:31.939Z,1.50
2018-08-11T21:01:00.987Z,1.30
2018-08-11T21:03:29.364Z,1.50
2018-08-11T21:05:57.766Z,1.50
2018-08-11T21:08:26.156Z,1.77
2018-08-11T21:10:54.551Z,1.20
2018-08-11T21:13:22.938Z,1.70
2018-08-11T21:15:51.340Z,1.70
2018-08-11T21:18:19.713Z,2.13
2018-08-11T21:20:48.117Z,1.80
2018-08-11T21:23:16.520Z,1.73
2018-08-11T21:25:44.946Z,1.20
2018-08-11T21:28:13.326Z,1.90
2018-08-11T21:30:41.727Z,1.50
2018-08-11T21:33:10.106Z,1.27
2018-08-11T21:35:38.509Z,1.60
2018-08-11T21:38:06.888Z,1.40
2018-08-11T21:40:35.291Z,1.27
2018-08-11T21:43:03.689Z,1.30
2018-08-11T21:45:32.091Z,1.33
2018-08-11T21:48:00.470Z,1.40
2018-08-11T21:50:28.875Z,1.40
2018-08-11T21:52:57.250Z,1.20
2018-08-11T21:55:25.650Z,1.20
2018-08-11T21:57:54.031Z,1.60
2018-08-11T22:00:29.418Z,1.50
2018-08-11T22:02:58.174Z,1.60
2018-08-11T22:05:27.083Z,1.30
2018-08-11T22:07:56.367Z,1.70
2018-08-11T22:10:24.778Z,1.60
2018-08-11T22:12:53.219Z,2.23
2018-08-11T22:15:21.819Z,1.20
2018-08-11T22:17:50.723Z,1.77
2018-08-11T22:20:19.596Z,1.70
2018-08-11T22:22:47.998Z,2.03
2018-08-11T22:25:16.394Z,1.80
2018-08-11T22:27:45.474Z,1.80
2018-08-11T22:30:13.854Z,1.40
2018-08-11T22:32:42.263Z,2.07
2018-08-11T22:35:12.119Z,1.90
2018-08-11T22:37:40.518Z,1.40
2018-08-11T22:40:09.126Z,1.33
2018-08-11T22:42:38.303Z,1.43
2018-08-11T22:45:09.723Z,1.50
2018-08-11T22:47:38.529Z,1.13
2018-08-11T22:50:08.699Z,1.70
2018-08-11T22:52:37.550Z,1.50
2018-08-11T22:55:06.218Z,1.40
2018-08-11T22:57:34.718Z,1.80
2018-08-11T23:00:03.144Z,1.30
2018-08-11T23:02:31.563Z,1.83
2018-08-11T23:04:59.943Z,1.60
2018-08-11T23:07:28.347Z,1.90
2018-08-11T23:09:56.742Z,1.70
2018-08-11T23:12:25.134Z,1.53
2018-08-11T23:14:53.530Z,1.73
2018-08-11T23:17:21.930Z,1.60
2018-08-11T23:19:50.306Z,1.67
2018-08-11T23:22:18.701Z,1.90
2018-08-11T23:24:47.083Z,2.10
2018-08-11T23:27:15.479Z,1.67
2018-08-11T23:29:43.856Z,2.10
2018-08-11T23:32:12.277Z,1.40
2018-08-11T23:34:40.658Z,1.40
2018-08-11T23:37:09.059Z,1.70
2018-08-11T23:39:37.438Z,1.53
2018-08-11T23:42:05.855Z,1.47
2018-08-11T23:44:34.230Z,1.50
2018-08-11T23:47:02.627Z,1.80
2018-08-11T23:49:31.005Z,2.00
2018-08-11T23:51:59.398Z,1.60
2018-08-11T23:54:27.809Z,1.13
2018-08-11T23:56:56.211Z,2.13
2018-08-11T23:59:24.599Z,1.63
